createdAt,value
2023-01-06T00:00:10.641Z,9.30
2023-01-06T00:02:59.245Z,9.50
2023-01-06T00:05:29.418Z,9.70
2023-01-06T00:07:59.495Z,9.90
2023-01-06T00:10:28.784Z,9.30
2023-01-06T00:12:57.895Z,9.10
2023-01-06T00:15:27.049Z,9.00
2023-01-06T00:17:55.965Z,8.10
2023-01-06T00:20:25.290Z,8.70
2023-01-06T00:22:54.733Z,9.40
2023-01-06T00:25:24.999Z,9.00
2023-01-06T00:30:23.501Z,8.70
2023-01-06T00:32:52.396Z,8.50
2023-01-06T00:35:21.375Z,8.20
2023-01-06T00:37:50.482Z,9.90
2023-01-06T00:40:19.160Z,9.00
2023-01-06T00:42:48.255Z,7.50
2023-01-06T00:45:17.250Z,7.20
2023-01-06T00:47:46.650Z,5.80
2023-01-06T00:50:15.440Z,6.50
2023-01-06T00:52:44.632Z,6.40
2023-01-06T00:55:13.641Z,5.90
2023-01-06T00:57:44.678Z,6.00
2023-01-06T01:00:15.327Z,5.70
2023-01-06T01:02:45.116Z,5.40
2023-01-06T01:05:14.320Z,5.70
2023-01-06T01:07:45.052Z,6.20
2023-01-06T01:10:14.487Z,5.50
2023-01-06T01:12:44.593Z,5.30
2023-01-06T01:17:44.212Z,5.10
2023-01-06T01:20:13.639Z,4.90
2023-01-06T01:22:43.558Z,4.60
2023-01-06T01:25:12.411Z,3.60
2023-01-06T01:27:41.702Z,4.40
2023-01-06T01:30:11.335Z,3.90
2023-01-06T01:32:40.600Z,3.40
2023-01-06T01:35:10.724Z,3.60
2023-01-06T01:37:41.250Z,3.40
2023-01-06T01:40:10.978Z,3.60
2023-01-06T01:42:40.162Z,3.20
2023-01-06T01:45:24.926Z,3.60
2023-01-06T01:48:16.164Z,3.50
2023-01-06T01:50:51.804Z,3.90
2023-01-06T01:53:27.334Z,3.20
2023-01-06T01:55:59.484Z,3.20
2023-01-06T01:58:35.352Z,3.30
2023-01-06T02:01:08.259Z,3.60
2023-01-06T02:03:40.795Z,4.20
2023-01-06T02:06:19.625Z,3.80
2023-01-06T02:09:09.817Z,3.80
2023-01-06T02:11:41.133Z,3.50
2023-01-06T02:14:16.906Z,4.30
2023-01-06T02:17:13.352Z,3.50
2023-01-06T02:20:12.672Z,4.30
2023-01-06T02:22:56.810Z,3.40
2023-01-06T02:25:54.065Z,4.10
2023-01-06T02:28:54.286Z,4.30
2023-01-06T02:31:52.883Z,3.80
2023-01-06T02:34:31.138Z,4.40
2023-01-06T02:37:01.693Z,3.50
2023-01-06T02:42:29.607Z,3.30
2023-01-06T02:45:21.454Z,3.50
2023-01-06T02:48:04.888Z,4.00
2023-01-06T02:50:46.874Z,4.10
2023-01-06T02:53:32.253Z,4.10
2023-01-06T02:56:03.087Z,3.90
2023-01-06T02:59:08.245Z,3.60
2023-01-06T03:01:45.833Z,3.50
2023-01-06T03:04:28.713Z,4.30
2023-01-06T03:07:03.766Z,4.30
2023-01-06T03:09:38.917Z,3.80
2023-01-06T03:12:42.624Z,3.90
2023-01-06T03:15:13.143Z,3.40
2023-01-06T03:17:43.241Z,3.50
2023-01-06T03:20:14.955Z,3.80
2023-01-06T03:22:45.404Z,4.10
2023-01-06T03:25:16.390Z,3.70
2023-01-06T03:27:46.081Z,3.80
2023-01-06T03:30:16.309Z,4.30
2023-01-06T03:35:28.830Z,3.90
2023-01-06T03:38:08.900Z,3.20
2023-01-06T03:40:42.827Z,3.70
2023-01-06T03:43:22.239Z,3.90
2023-01-06T03:46:06.284Z,3.90
2023-01-06T03:49:06.510Z,3.40
2023-01-06T03:51:35.595Z,3.60
2023-01-06T03:54:27.632Z,3.80
2023-01-06T03:57:09.632Z,3.90
2023-01-06T03:59:51.314Z,3.80
2023-01-06T04:02:21.951Z,4.00
2023-01-06T04:05:20.987Z,3.70
2023-01-06T04:07:50.636Z,4.20
2023-01-06T04:10:21.433Z,3.90
2023-01-06T04:12:52.458Z,3.60
2023-01-06T04:15:29.688Z,4.00
2023-01-06T04:18:00.169Z,4.00
2023-01-06T04:20:32.592Z,3.80
2023-01-06T04:23:15.545Z,4.10
2023-01-06T04:25:46.084Z,4.00
2023-01-06T04:28:23.794Z,3.80
2023-01-06T04:30:58.219Z,3.90
2023-01-06T04:33:29.000Z,3.60
2023-01-06T04:36:02.464Z,4.00
2023-01-06T04:41:01.503Z,4.10
2023-01-06T04:43:31.332Z,4.00
2023-01-06T04:46:00.706Z,3.70
2023-01-06T04:48:30.808Z,3.30
2023-01-06T04:51:08.072Z,3.10
2023-01-06T04:53:39.520Z,3.60
2023-01-06T04:56:11.627Z,3.60
2023-01-06T04:58:41.013Z,3.00
2023-01-06T05:01:12.819Z,3.60
2023-01-06T05:03:42.496Z,3.30
2023-01-06T05:06:12.766Z,3.70
2023-01-06T05:11:17.185Z,3.60
2023-01-06T05:13:46.700Z,4.00
2023-01-06T05:16:17.591Z,3.40
2023-01-06T05:18:47.523Z,3.30
2023-01-06T05:21:17.241Z,3.90
2023-01-06T05:23:47.029Z,3.30
2023-01-06T05:26:20.265Z,3.10
2023-01-06T05:28:50.882Z,3.50
2023-01-06T05:31:20.210Z,3.40
2023-01-06T05:33:50.200Z,3.20
2023-01-06T05:36:19.811Z,3.10
2023-01-06T05:38:53.848Z,4.80
2023-01-06T05:41:23.526Z,2.90
2023-01-06T05:43:52.433Z,3.00
2023-01-06T05:46:22.168Z,3.70
2023-01-06T05:48:51.015Z,3.10
2023-01-06T05:51:21.441Z,3.10
2023-01-06T05:53:50.876Z,2.80
2023-01-06T05:56:21.580Z,2.80
2023-01-06T05:58:53.352Z,2.60
2023-01-06T06:01:25.381Z,2.70
2023-01-06T06:03:55.457Z,2.50
2023-01-06T06:06:26.611Z,2.90
2023-01-06T06:08:55.545Z,2.60
2023-01-06T06:11:24.446Z,2.70
2023-01-06T06:13:56.198Z,2.30
2023-01-06T06:16:28.297Z,4.80
2023-01-06T06:18:59.406Z,2.40
2023-01-06T06:21:31.293Z,2.40
2023-01-06T06:24:00.473Z,2.30
2023-01-06T06:26:29.364Z,2.30
2023-01-06T06:28:58.252Z,2.10
2023-01-06T06:31:30.075Z,2.00
2023-01-06T06:34:01.073Z,1.90
2023-01-06T06:36:30.758Z,1.70
2023-01-06T06:38:59.539Z,2.00
2023-01-06T06:41:28.637Z,1.80
2023-01-06T06:43:57.210Z,2.00
2023-01-06T06:46:26.003Z,1.80
2023-01-06T06:48:54.895Z,2.00
2023-01-06T06:51:25.222Z,1.90
2023-01-06T06:53:54.624Z,2.00
2023-01-06T06:56:23.815Z,1.90
2023-01-06T06:58:53.134Z,1.90
2023-01-06T07:01:22.714Z,1.90
2023-01-06T07:03:51.511Z,1.60
2023-01-06T07:06:23.345Z,1.90
2023-01-06T07:08:52.273Z,1.80
2023-01-06T07:11:21.573Z,2.40
2023-01-06T07:13:50.250Z,2.20
2023-01-06T07:16:23.362Z,1.80
2023-01-06T07:18:51.923Z,2.40
2023-01-06T07:21:20.396Z,2.20
2023-01-06T07:23:49.080Z,2.30
2023-01-06T07:26:17.870Z,2.10
2023-01-06T07:28:46.974Z,2.10
2023-01-06T07:31:15.702Z,2.80
2023-01-06T07:33:44.655Z,1.80
2023-01-06T07:36:13.639Z,2.00
2023-01-06T07:38:42.530Z,1.80
2023-01-06T07:41:11.112Z,1.80
2023-01-06T07:43:39.997Z,1.80
2023-01-06T07:46:09.671Z,1.60
2023-01-06T07:48:38.496Z,2.10
2023-01-06T07:51:07.383Z,1.60
2023-01-06T07:53:36.275Z,1.50
2023-01-06T07:56:05.323Z,1.60
2023-01-06T07:58:33.976Z,1.40
2023-01-06T08:01:07.428Z,1.60
2023-01-06T08:03:36.446Z,1.40
2023-01-06T08:06:12.885Z,1.90
2023-01-06T08:08:42.107Z,1.50
2023-01-06T08:11:13.378Z,1.70
2023-01-06T08:13:41.938Z,1.60
2023-01-06T08:16:11.803Z,1.60
2023-01-06T08:18:41.050Z,1.70
2023-01-06T08:21:11.605Z,1.60
2023-01-06T08:23:40.262Z,1.40
2023-01-06T08:26:11.826Z,1.50
2023-01-06T08:28:42.197Z,1.70
2023-01-06T08:31:12.485Z,1.60
2023-01-06T08:33:41.466Z,1.80
2023-01-06T08:36:14.044Z,1.60
2023-01-06T08:38:44.052Z,1.50
2023-01-06T08:41:13.251Z,1.90
2023-01-06T08:43:45.516Z,1.80
2023-01-06T08:46:18.202Z,1.50
2023-01-06T08:48:48.184Z,1.60
2023-01-06T08:53:48.458Z,1.50
2023-01-06T08:56:21.127Z,1.40
2023-01-06T08:58:58.635Z,1.50
2023-01-06T09:01:33.561Z,1.30
2023-01-06T09:04:05.460Z,1.60
2023-01-06T09:06:35.341Z,1.40
2023-01-06T09:09:06.177Z,1.70
2023-01-06T09:11:35.162Z,1.50
2023-01-06T09:14:03.738Z,1.50
2023-01-06T09:16:32.223Z,1.80
2023-01-06T09:19:00.698Z,1.50
2023-01-06T09:21:29.493Z,1.50
2023-01-06T09:23:58.094Z,1.60
2023-01-06T09:26:26.767Z,1.30
2023-01-06T09:28:55.748Z,1.30
2023-01-06T09:31:24.354Z,1.60
2023-01-06T09:33:53.533Z,1.60
2023-01-06T09:36:22.834Z,1.50
2023-01-06T09:38:51.416Z,1.50
2023-01-06T09:41:51.842Z,1.70
2023-01-06T09:44:28.059Z,1.50
2023-01-06T09:46:59.095Z,1.50
2023-01-06T09:49:30.427Z,1.60
2023-01-06T09:52:07.886Z,1.50
2023-01-06T09:54:44.970Z,1.20
2023-01-06T09:57:21.960Z,1.60
2023-01-06T09:59:57.185Z,1.40
2023-01-06T10:02:37.881Z,1.30
2023-01-06T10:05:28.970Z,1.20
2023-01-06T10:08:21.820Z,1.30
2023-01-06T10:11:14.678Z,1.10
2023-01-06T10:13:46.081Z,1.60
2023-01-06T10:16:44.120Z,1.20
2023-01-06T10:19:31.312Z,1.10
2023-01-06T10:22:12.283Z,0.90
2023-01-06T10:24:46.496Z,1.20
2023-01-06T10:27:15.003Z,1.50
2023-01-06T10:29:43.871Z,1.30
2023-01-06T10:32:16.854Z,1.30
2023-01-06T10:34:48.409Z,2.00
2023-01-06T10:37:32.553Z,1.70
2023-01-06T10:40:16.087Z,1.40
2023-01-06T10:43:03.778Z,1.30
2023-01-06T10:45:49.268Z,2.60
2023-01-06T10:48:21.462Z,6.90
2023-01-06T10:50:50.575Z,2.10
2023-01-06T10:53:19.663Z,1.40
2023-01-06T10:55:57.657Z,1.80
2023-01-06T10:58:33.206Z,1.70
2023-01-06T11:01:18.382Z,2.10
2023-01-06T11:03:47.483Z,3.00
2023-01-06T11:06:28.245Z,1.30
2023-01-06T11:08:56.932Z,1.60
2023-01-06T11:11:28.415Z,1.80
2023-01-06T11:14:01.671Z,1.50
2023-01-06T11:16:32.588Z,3.60
2023-01-06T11:19:04.577Z,4.00
2023-01-06T11:21:44.931Z,3.20
2023-01-06T11:24:25.329Z,2.90
2023-01-06T11:26:57.123Z,4.00
2023-01-06T11:29:29.832Z,2.20
2023-01-06T11:32:12.111Z,3.00
2023-01-06T11:34:59.871Z,1.90
2023-01-06T11:37:40.785Z,2.20
2023-01-06T11:40:26.229Z,1.70
2023-01-06T11:42:58.208Z,4.30
2023-01-06T11:45:29.892Z,1.90
2023-01-06T11:47:58.723Z,5.50
2023-01-06T11:50:27.411Z,1.90
2023-01-06T11:53:01.979Z,1.50
2023-01-06T11:55:31.136Z,1.10
2023-01-06T11:58:21.939Z,1.90
2023-01-06T12:01:16.155Z,1.80
2023-01-06T12:03:46.683Z,3.80
2023-01-06T12:06:19.428Z,2.10
2023-01-06T12:09:06.552Z,2.10
2023-01-06T12:11:53.489Z,2.30
2023-01-06T12:14:29.936Z,2.10
2023-01-06T12:16:58.967Z,2.50
2023-01-06T12:19:36.519Z,2.00
2023-01-06T12:22:11.651Z,1.70
2023-01-06T12:24:41.976Z,1.90
2023-01-06T12:27:14.355Z,1.90
2023-01-06T12:29:43.159Z,1.50
2023-01-06T12:32:20.105Z,1.70
2023-01-06T12:34:52.613Z,1.40
2023-01-06T12:37:43.130Z,1.20
2023-01-06T12:40:41.772Z,1.90
2023-01-06T12:43:23.784Z,1.70
2023-01-06T12:45:58.221Z,1.60
2023-01-06T12:48:53.308Z,1.30
2023-01-06T12:51:45.091Z,1.30
2023-01-06T12:54:21.613Z,1.50
2023-01-06T12:57:14.753Z,1.50
2023-01-06T13:00:09.872Z,1.40
2023-01-06T13:03:06.298Z,1.50
2023-01-06T13:05:47.784Z,1.30
2023-01-06T13:08:34.692Z,1.30
2023-01-06T13:11:03.382Z,1.40
2023-01-06T13:13:50.097Z,1.20
2023-01-06T13:16:33.277Z,1.40
2023-01-06T13:19:15.205Z,1.40
2023-01-06T13:21:45.530Z,1.20
2023-01-06T13:24:29.795Z,1.50
2023-01-06T13:27:12.204Z,1.40
2023-01-06T13:29:58.384Z,1.40
2023-01-06T13:32:59.943Z,1.40
2023-01-06T13:35:40.505Z,1.30
2023-01-06T13:38:27.828Z,1.40
2023-01-06T13:41:01.735Z,1.40
2023-01-06T13:43:33.693Z,1.60
2023-01-06T13:46:10.140Z,1.30
2023-01-06T13:48:47.452Z,1.50
2023-01-06T13:51:18.593Z,1.40
2023-01-06T13:53:50.455Z,1.20
2023-01-06T13:56:19.038Z,1.60
2023-01-06T13:58:50.711Z,1.40
2023-01-06T14:01:19.446Z,2.40
2023-01-06T14:03:50.719Z,1.40
2023-01-06T14:06:22.299Z,1.50
2023-01-06T14:08:58.546Z,1.60
2023-01-06T14:11:32.467Z,1.10
2023-01-06T14:14:25.194Z,2.10
2023-01-06T14:16:54.905Z,2.40
2023-01-06T14:19:24.147Z,2.00
2023-01-06T14:21:55.764Z,1.80
2023-01-06T14:24:31.547Z,2.00
2023-01-06T14:27:04.902Z,2.20
2023-01-06T14:29:42.605Z,1.80
2023-01-06T14:32:15.072Z,1.90
2023-01-06T14:34:56.058Z,2.20
2023-01-06T14:37:34.785Z,2.70
2023-01-06T14:40:06.958Z,2.50
2023-01-06T14:42:42.388Z,2.80
2023-01-06T14:45:21.931Z,2.40
2023-01-06T14:47:55.216Z,2.80
2023-01-06T14:50:38.289Z,2.50
2023-01-06T14:53:43.790Z,2.80
2023-01-06T14:56:22.000Z,3.30
2023-01-06T14:58:50.584Z,3.80
2023-01-06T15:01:32.800Z,3.60
2023-01-06T15:04:03.801Z,3.80
2023-01-06T15:06:32.932Z,3.70
2023-01-06T15:09:23.123Z,3.40
2023-01-06T15:14:29.305Z,3.60
2023-01-06T15:17:02.146Z,3.20
2023-01-06T15:19:31.676Z,3.20
2023-01-06T15:22:06.004Z,4.20
2023-01-06T15:24:38.624Z,3.50
2023-01-06T15:27:11.765Z,3.90
2023-01-06T15:29:53.661Z,3.40
2023-01-06T15:32:25.718Z,4.60
2023-01-06T15:34:58.369Z,5.70
2023-01-06T15:37:31.385Z,4.30
2023-01-06T15:40:00.079Z,4.80
2023-01-06T15:42:28.960Z,4.70
2023-01-06T15:45:02.173Z,5.10
2023-01-06T15:47:35.353Z,5.00
2023-01-06T15:50:08.693Z,5.30
2023-01-06T15:52:44.695Z,5.40
2023-01-06T15:55:24.955Z,4.10
2023-01-06T16:00:51.098Z,6.70
2023-01-06T16:03:25.826Z,7.30
2023-01-06T16:06:11.565Z,6.90
2023-01-06T16:08:42.446Z,5.10
2023-01-06T16:13:54.566Z,6.40
2023-01-06T16:16:28.177Z,5.60
2023-01-06T16:18:56.972Z,13.20
2023-01-06T16:21:29.841Z,8.60
2023-01-06T16:24:02.424Z,9.50
2023-01-06T16:26:35.942Z,7.50
2023-01-06T16:29:33.636Z,4.70
2023-01-06T16:32:33.809Z,6.90
2023-01-06T16:35:07.408Z,4.60
2023-01-06T16:37:35.887Z,5.60
2023-01-06T16:40:05.851Z,7.10
2023-01-06T16:42:45.234Z,7.90
2023-01-06T16:45:31.948Z,6.20
2023-01-06T16:48:00.843Z,6.00
2023-01-06T16:50:38.649Z,6.30
2023-01-06T16:53:09.994Z,13.80
2023-01-06T16:55:40.558Z,9.70
2023-01-06T17:00:51.818Z,10.70
2023-01-06T17:03:24.109Z,8.40
2023-01-06T17:05:53.635Z,4.90
2023-01-06T17:08:33.126Z,9.40
2023-01-06T17:11:07.035Z,8.40
2023-01-06T17:13:36.064Z,8.50
2023-01-06T17:16:10.815Z,7.60
2023-01-06T17:18:53.699Z,7.00
2023-01-06T17:21:27.588Z,11.30
2023-01-06T17:23:58.835Z,7.10
2023-01-06T17:26:27.923Z,5.70
2023-01-06T17:28:57.979Z,4.70
2023-01-06T17:31:30.714Z,6.80
2023-01-06T17:34:10.052Z,7.20
2023-01-06T17:36:40.945Z,19.80
2023-01-06T17:39:40.191Z,24.60
2023-01-06T17:42:11.843Z,27.40
2023-01-06T17:44:45.856Z,23.50
2023-01-06T17:47:17.144Z,22.70
2023-01-06T17:49:55.048Z,25.20
2023-01-06T17:52:42.232Z,24.10
2023-01-06T17:55:44.213Z,26.10
2023-01-06T17:58:18.363Z,25.60
2023-01-06T18:00:47.058Z,22.20
2023-01-06T18:03:22.945Z,22.80
2023-01-06T18:05:54.730Z,21.50
2023-01-06T18:08:25.983Z,22.60
2023-01-06T18:11:01.191Z,18.40
2023-01-06T18:13:38.802Z,15.40
2023-01-06T18:16:22.056Z,12.00
2023-01-06T18:18:50.822Z,10.90
2023-01-06T18:21:34.650Z,10.20
2023-01-06T18:24:30.565Z,8.20
2023-01-06T18:27:01.414Z,9.10
2023-01-06T18:29:36.543Z,8.50
2023-01-06T18:32:20.577Z,8.30
2023-01-06T18:34:52.748Z,8.40
2023-01-06T18:37:24.604Z,7.90
2023-01-06T18:39:57.722Z,14.40
2023-01-06T18:42:30.265Z,23.60
2023-01-06T18:45:07.772Z,38.50
2023-01-06T18:47:38.966Z,29.20
2023-01-06T18:50:43.227Z,33.80
2023-01-06T18:53:14.680Z,33.00
2023-01-06T18:55:52.241Z,29.30
2023-01-06T18:58:41.473Z,24.20
2023-01-06T19:01:37.756Z,20.10
2023-01-06T19:04:22.329Z,18.90
2023-01-06T19:06:58.645Z,13.80
2023-01-06T19:09:35.045Z,12.40
2023-01-06T19:12:09.477Z,10.20
2023-01-06T19:14:43.599Z,8.40
2023-01-06T19:17:34.396Z,8.00
2023-01-06T19:20:21.839Z,8.10
2023-01-06T19:22:50.737Z,8.30
2023-01-06T19:25:25.651Z,8.40
2023-01-06T19:27:58.789Z,8.50
2023-01-06T19:30:42.882Z,11.30
2023-01-06T19:33:56.425Z,29.90
2023-01-06T19:36:47.207Z,32.60
2023-01-06T19:39:25.164Z,33.60
2023-01-06T19:41:58.623Z,30.10
2023-01-06T19:44:33.480Z,30.80
2023-01-06T19:47:11.979Z,36.70
2023-01-06T19:49:43.835Z,30.50
2023-01-06T19:52:39.652Z,28.50
2023-01-06T19:55:14.609Z,30.40
2023-01-06T19:58:05.280Z,27.50
2023-01-06T20:00:48.254Z,25.30
2023-01-06T20:03:30.229Z,23.10
2023-01-06T20:05:59.453Z,20.30
2023-01-06T20:08:28.492Z,19.00
2023-01-06T20:10:56.975Z,19.10
2023-01-06T20:13:25.655Z,16.10
2023-01-06T20:15:54.262Z,15.40
2023-01-06T20:18:22.825Z,17.10
2023-01-06T20:20:51.405Z,15.70
2023-01-06T20:23:20.292Z,17.00
2023-01-06T20:25:48.977Z,16.90
2023-01-06T20:28:18.302Z,17.40
2023-01-06T20:30:47.381Z,25.10
2023-01-06T20:33:16.072Z,24.50
2023-01-06T20:35:44.641Z,22.20
2023-01-06T20:38:13.431Z,18.40
2023-01-06T20:40:42.015Z,26.10
2023-01-06T20:43:11.121Z,33.90
2023-01-06T20:45:39.916Z,26.90
2023-01-06T20:48:08.691Z,25.90
2023-01-06T20:50:39.312Z,22.80
2023-01-06T20:53:08.411Z,23.20
2023-01-06T20:55:36.996Z,23.90
2023-01-06T20:58:05.577Z,21.50
2023-01-06T21:00:34.291Z,21.10
2023-01-06T21:03:03.624Z,24.30
2023-01-06T21:05:32.667Z,21.20
2023-01-06T21:08:01.456Z,22.40
2023-01-06T21:10:30.965Z,23.20
2023-01-06T21:12:59.638Z,22.00
2023-01-06T21:15:28.459Z,23.90
2023-01-06T21:17:57.110Z,20.80
2023-01-06T21:20:25.798Z,19.70
2023-01-06T21:22:54.481Z,16.70
2023-01-06T21:25:25.039Z,17.20
2023-01-06T21:27:53.702Z,16.30
2023-01-06T21:30:22.964Z,16.40
2023-01-06T21:32:51.685Z,17.50
2023-01-06T21:35:20.374Z,17.30
2023-01-06T21:37:49.049Z,15.40
2023-01-06T21:40:18.067Z,15.80
2023-01-06T21:43:06.206Z,16.00
2023-01-06T21:45:40.503Z,16.60
2023-01-06T21:48:10.212Z,15.90
2023-01-06T21:50:42.483Z,15.10
2023-01-06T21:53:13.393Z,14.30
2023-01-06T21:55:42.215Z,13.40
2023-01-06T21:58:11.113Z,12.80
2023-01-06T22:00:39.996Z,13.10
2023-01-06T22:03:08.837Z,13.40
2023-01-06T22:05:37.675Z,11.70
2023-01-06T22:08:06.661Z,12.80
2023-01-06T22:10:39.858Z,10.70
2023-01-06T22:13:11.078Z,12.40
2023-01-06T22:15:41.841Z,15.10
2023-01-06T22:18:11.084Z,16.50
2023-01-06T22:20:41.052Z,17.00
2023-01-06T22:23:14.648Z,16.00
2023-01-06T22:25:43.340Z,14.70
2023-01-06T22:28:12.231Z,15.30
2023-01-06T22:30:41.036Z,14.90
2023-01-06T22:33:10.623Z,17.00
2023-01-06T22:35:39.509Z,15.20
2023-01-06T22:38:08.194Z,15.00
2023-01-06T22:40:36.984Z,13.30
2023-01-06T22:43:06.543Z,14.80
2023-01-06T22:45:35.787Z,13.10
2023-01-06T22:48:04.584Z,11.00
2023-01-06T22:50:33.777Z,12.00
2023-01-06T22:53:02.777Z,11.70
2023-01-06T22:55:31.875Z,13.70
2023-01-06T22:58:00.554Z,14.20
2023-01-06T23:00:30.165Z,13.00
2023-01-06T23:02:58.772Z,13.10
2023-01-06T23:05:29.370Z,12.50
2023-01-06T23:10:26.738Z,12.90
2023-01-06T23:12:55.629Z,16.10
2023-01-06T23:15:24.422Z,13.80
2023-01-06T23:17:53.722Z,12.00
2023-01-06T23:20:22.816Z,12.50
2023-01-06T23:22:51.805Z,10.40
2023-01-06T23:25:20.805Z,11.50
2023-01-06T23:27:49.899Z,11.30
2023-01-06T23:30:18.688Z,11.10
2023-01-06T23:32:47.572Z,9.60
2023-01-06T23:35:16.268Z,14.80
2023-01-06T23:37:45.363Z,12.60
2023-01-06T23:40:14.144Z,10.50
2023-01-06T23:42:48.395Z,10.30
2023-01-06T23:45:18.081Z,10.20
2023-01-06T23:47:46.771Z,11.00
2023-01-06T23:50:15.949Z,10.90
2023-01-06T23:52:44.730Z,10.40
2023-01-06T23:55:13.532Z,9.70
2023-01-06T23:57:42.316Z,9.00
